Time;durP1;ratioP1;P1;durP2;ratioP2;P2;SDS_P1;SDS_P2;PMS_P1;PMS_P2;Temp;Humidity;BMP_temperature;BMP_pressure;BME280_temperature;BME280_humidity;BME280_pressure;Samples;Min_cycle;Max_cycle;Signal;HPM_P1;HPM_P2
2022/07/05 00:01:18;;;;;;;29.20;27.60;;;18.90;74.30;;;;;;5008682;28;20489;-70
2022/07/05 00:03:45;;;;;;;28.30;26.50;;;18.90;74.50;;;;;;5010663;28;20556;-74
2022/07/05 00:06:11;;;;;;;28.37;26.33;;;18.80;74.40;;;;;;5010144;28;20827;-71
2022/07/05 00:08:40;;;;;;;27.60;26.10;;;18.60;75.00;;;;;;5012143;28;20473;-68
2022/07/05 00:11:08;;;;;;;27.27;25.57;;;18.60;75.40;;;;;;5008142;28;20471;-68
2022/07/05 00:13:35;;;;;;;26.93;25.43;;;18.60;75.20;;;;;;5010020;28;20464;-68
2022/07/05 00:16:02;;;;;;;27.10;25.50;;;18.60;75.20;;;;;;5008890;28;20544;-73
2022/07/05 00:18:29;;;;;;;27.50;26.00;;;18.60;75.10;;;;;;5008892;28;20568;-70
2022/07/05 00:20:55;;;;;;;28.07;26.07;;;18.60;75.10;;;;;;5007938;28;20461;-70
2022/07/05 00:23:22;;;;;;;27.90;26.20;;;18.60;75.40;;;;;;5009498;28;20468;-70
2022/07/05 00:25:51;;;;;;;28.10;26.40;;;18.60;74.90;;;;;;5007415;28;20544;-70
2022/07/05 00:28:18;;;;;;;28.10;26.50;;;18.50;75.30;;;;;;5010035;28;20513;-69
2022/07/05 00:30:46;;;;;;;27.87;26.27;;;18.50;75.00;;;;;;5008043;28;20568;-68
2022/07/05 00:33:12;;;;;;;29.67;27.20;;;18.60;74.80;;;;;;5008266;28;20548;-68
2022/07/05 00:35:39;;;;;;;27.43;25.80;;;18.50;75.20;;;;;;5010448;28;20536;-68
2022/07/05 00:38:07;;;;;;;27.93;26.13;;;18.40;75.40;;;;;;5010764;28;20487;-68
2022/07/05 00:40:33;;;;;;;27.07;25.67;;;18.20;75.90;;;;;;5008075;28;20465;-67
2022/07/05 00:43:02;;;;;;;27.50;26.00;;;18.20;76.10;;;;;;5010304;28;20548;-68
2022/07/05 00:45:29;;;;;;;27.93;26.40;;;18.10;76.40;;;;;;5009390;28;20580;-68
2022/07/05 00:47:56;;;;;;;27.83;26.27;;;18.10;76.50;;;;;;5010324;28;20546;-68
2022/07/05 00:50:23;;;;;;;27.37;25.97;;;18.10;76.60;;;;;;5006824;28;20465;-67
2022/07/05 00:52:53;;;;;;;27.80;25.97;;;18.10;76.30;;;;;;5009574;28;20493;-68
2022/07/05 00:55:20;;;;;;;28.20;26.40;;;18.20;76.10;;;;;;5008141;28;20567;-68
2022/07/05 00:57:47;;;;;;;28.13;26.53;;;18.10;76.40;;;;;;5010084;28;20513;-68
2022/07/05 01:00:15;;;;;;;28.30;26.70;;;18.10;76.70;;;;;;5007815;28;20469;-68
2022/07/05 01:02:42;;;;;;;27.23;25.73;;;18.00;77.00;;;;;;5009058;28;20559;-74
2022/07/05 01:05:09;;;;;;;27.60;26.10;;;18.00;77.10;;;;;;5008296;28;20545;-71
2022/07/05 01:07:36;;;;;;;28.23;26.63;;;18.10;76.70;;;;;;5010195;28;20516;-70
2022/07/05 01:10:04;;;;;;;29.43;27.53;;;18.10;76.40;;;;;;5008286;28;20557;-68
2022/07/05 01:12:31;;;;;;;27.57;26.07;;;18.10;76.40;;;;;;5008510;28;20556;-68
2022/07/05 01:14:59;;;;;;;27.47;25.90;;;18.00;76.90;;;;;;5007946;28;20541;-68
2022/07/05 01:17:28;;;;;;;27.23;25.83;;;18.00;76.90;;;;;;5008750;28;20489;-70
2022/07/05 01:19:56;;;;;;;27.73;26.23;;;18.00;76.80;;;;;;5005694;28;20536;-70
2022/07/05 01:22:26;;;;;;;27.83;26.23;;;18.00;76.50;;;;;;5009300;28;21155;-70
2022/07/05 01:24:55;;;;;;;27.87;26.27;;;17.90;76.60;;;;;;5009972;28;20457;-70
2022/07/05 01:27:22;;;;;;;27.13;25.63;;;17.90;76.90;;;;;;5009663;28;21358;-70
2022/07/05 01:29:49;;;;;;;28.73;26.93;;;17.80;76.80;;;;;;5007699;28;20457;-70
2022/07/05 01:32:16;;;;;;;27.23;25.70;;;17.80;76.80;;;;;;5007279;28;20469;-70
2022/07/05 01:34:44;;;;;;;27.10;25.60;;;17.80;76.60;;;;;;5008963;28;20544;-70
2022/07/05 01:37:11;;;;;;;27.27;25.77;;;17.70;77.10;;;;;;5010510;28;20481;-70
2022/07/05 01:39:39;;;;;;;27.10;25.60;;;17.70;77.10;;;;;;5006245;28;20493;-70
2022/07/05 01:42:08;;;;;;;26.20;24.80;;;17.70;77.10;;;;;;5006199;28;20567;-70
2022/07/05 01:44:35;;;;;;;26.63;24.97;;;17.60;77.40;;;;;;5008856;28;20464;-70
2022/07/05 01:47:07;;;;;;;26.70;25.20;;;17.50;77.30;;;;;;5010221;28;20962;-67
2022/07/05 01:49:39;;;;;;;27.13;25.60;;;17.50;77.40;;;;;;5007335;28;20457;-68
2022/07/05 01:52:10;;;;;;;26.60;25.10;;;17.30;77.60;;;;;;5007135;28;20457;-67
2022/07/05 01:54:37;;;;;;;26.93;25.40;;;17.30;77.60;;;;;;5006710;28;20576;-68
2022/07/05 01:57:07;;;;;;;27.60;26.10;;;17.30;77.70;;;;;;5009363;28;20564;-68
2022/07/05 01:59:34;;;;;;;27.17;25.67;;;17.30;77.80;;;;;;5007829;28;20561;-68
2022/07/05 02:02:02;;;;;;;27.30;25.67;;;17.30;77.90;;;;;;5006553;28;20471;-67
2022/07/05 02:04:30;;;;;;;26.20;24.73;;;17.20;77.80;;;;;;5009105;28;20461;-67
2022/07/05 02:06:57;;;;;;;27.03;25.43;;;17.20;78.20;;;;;;5007812;28;20539;-70
2022/07/05 02:09:24;;;;;;;26.33;24.73;;;17.20;78.40;;;;;;5007849;28;20568;-70
2022/07/05 02:11:51;;;;;;;26.43;24.93;;;17.20;78.30;;;;;;5008517;28;20564;-70
2022/07/05 02:14:20;;;;;;;25.67;24.27;;;17.20;78.50;;;;;;5006597;28;20457;-70
2022/07/05 02:16:47;;;;;;;25.67;24.27;;;17.20;78.20;;;;;;5007688;28;20853;-70
2022/07/05 02:19:14;;;;;;;25.57;24.17;;;17.20;78.20;;;;;;5007362;28;20492;-70
2022/07/05 02:21:41;;;;;;;26.50;24.90;;;17.20;78.20;;;;;;5008691;28;20512;-70
2022/07/05 02:24:09;;;;;;;27.17;25.37;;;17.20;78.00;;;;;;5008028;28;20897;-70
2022/07/05 02:26:36;;;;;;;25.40;23.77;;;17.20;78.20;;;;;;5004830;28;20508;-71
2022/07/05 02:29:03;;;;;;;25.63;24.23;;;17.10;78.60;;;;;;5006353;28;20555;-72
2022/07/05 02:31:32;;;;;;;27.30;25.60;;;17.00;78.70;;;;;;5008375;28;20828;-70
2022/07/05 02:34:00;;;;;;;25.83;24.10;;;17.00;78.60;;;;;;5007966;28;20457;-67
2022/07/05 02:36:27;;;;;;;26.53;25.00;;;17.00;78.70;;;;;;5006835;28;20815;-68
2022/07/05 02:38:54;;;;;;;26.07;24.47;;;17.00;79.00;;;;;;5007543;28;20556;-68
2022/07/05 02:41:21;;;;;;;26.20;24.73;;;16.90;79.10;;;;;;5005121;28;20500;-68
2022/07/05 02:43:48;;;;;;;26.27;24.67;;;17.00;79.30;;;;;;5007003;28;20875;-66
2022/07/05 02:46:15;;;;;;;26.60;25.10;;;17.00;78.80;;;;;;5006583;28;20461;-68
2022/07/05 02:48:43;;;;;;;30.63;28.73;;;16.80;79.00;;;;;;5007011;28;20477;-68
2022/07/05 02:51:10;;;;;;;25.90;24.30;;;16.80;79.10;;;;;;5005552;28;20883;-68
2022/07/05 02:53:37;;;;;;;25.90;24.40;;;16.80;79.40;;;;;;5008458;28;21029;-67
2022/07/05 02:56:05;;;;;;;27.00;25.40;;;16.80;79.30;;;;;;5005553;28;20563;-67
2022/07/05 02:58:31;;;;;;;25.77;24.27;;;16.70;79.40;;;;;;5007826;28;20481;-68
2022/07/05 03:00:58;;;;;;;25.80;24.40;;;16.70;80.00;;;;;;5005882;28;20968;-68
2022/07/05 03:03:25;;;;;;;26.90;25.40;;;16.70;79.80;;;;;;5009109;28;20835;-69
2022/07/05 03:05:54;;;;;;;26.03;24.63;;;16.70;79.50;;;;;;5005762;28;20724;-66
2022/07/05 03:08:21;;;;;;;26.37;24.77;;;16.70;79.50;;;;;;4997633;28;20469;-68
2022/07/05 03:10:48;;;;;;;38.03;35.73;;;16.60;79.70;;;;;;5007343;28;20541;-67
2022/07/05 03:13:15;;;;;;;27.17;25.67;;;16.60;80.00;;;;;;5009907;28;20540;-68
2022/07/05 03:15:42;;;;;;;31.90;30.00;;;16.50;80.00;;;;;;5010573;28;20461;-67
2022/07/05 03:18:09;;;;;;;28.83;27.13;;;16.40;80.40;;;;;;5010870;28;20499;-68
2022/07/05 03:20:36;;;;;;;29.27;27.67;;;16.40;80.60;;;;;;5011192;28;20572;-67
2022/07/05 03:23:05;;;;;;;26.83;25.23;;;16.40;80.40;;;;;;5010868;28;20497;-67
2022/07/05 03:25:32;;;;;;;26.90;25.30;;;16.40;80.50;;;;;;5010786;28;20477;-67
2022/07/05 03:27:59;;;;;;;28.90;27.00;;;16.40;80.80;;;;;;5011777;28;20560;-67
2022/07/05 03:30:26;;;;;;;29.50;27.60;;;16.40;80.70;;;;;;5011270;28;20985;-67
2022/07/05 03:32:53;;;;;;;30.70;28.90;;;16.40;80.60;;;;;;5010575;28;20838;-68
2022/07/05 03:35:20;;;;;;;26.27;24.77;;;16.30;80.60;;;;;;5010546;28;20536;-67
2022/07/05 03:37:46;;;;;;;25.83;24.37;;;16.30;80.70;;;;;;5010128;28;20495;-67
2022/07/05 03:40:15;;;;;;;27.30;25.70;;;16.40;80.40;;;;;;5010582;28;20571;-67
2022/07/05 03:42:42;;;;;;;25.53;23.83;;;16.40;80.40;;;;;;5009688;28;20556;-68
2022/07/05 03:45:11;;;;;;;29.70;28.10;;;16.50;80.20;;;;;;5010723;28;20461;-67
2022/07/05 03:47:38;;;;;;;26.73;25.13;;;16.40;80.40;;;;;;5008964;28;20481;-67
2022/07/05 03:50:05;;;;;;;31.03;29.17;;;16.50;80.10;;;;;;5010055;28;20468;-68
2022/07/05 03:52:32;;;;;;;26.77;24.97;;;16.60;80.00;;;;;;5009681;28;20461;-69
2022/07/05 03:54:59;;;;;;;28.43;26.73;;;16.60;79.50;;;;;;5011147;28;20596;-70
2022/07/05 03:57:28;;;;;;;26.23;24.70;;;16.70;79.90;;;;;;5009590;28;20487;-70
2022/07/05 03:59:55;;;;;;;25.60;24.10;;;17.00;79.00;;;;;;5011786;28;20453;-69
2022/07/05 04:02:21;;;;;;;28.70;27.10;;;17.50;77.30;;;;;;5009513;28;20556;-71
2022/07/05 04:04:48;;;;;;;28.77;27.07;;;18.00;75.40;;;;;;5010142;28;20472;-70
2022/07/05 04:07:15;;;;;;;27.10;25.47;;;18.20;74.20;;;;;;5010863;28;20476;-72
2022/07/05 04:09:42;;;;;;;29.80;27.80;;;18.30;73.90;;;;;;5010276;28;20544;-70
2022/07/05 04:12:10;;;;;;;26.70;25.20;;;18.30;73.50;;;;;;5010920;28;20456;-70
2022/07/05 04:14:38;;;;;;;27.87;26.30;;;18.10;73.90;;;;;;5009291;28;21040;-70
2022/07/05 04:17:05;;;;;;;28.93;27.33;;;18.00;74.30;;;;;;5011000;28;20543;-70
2022/07/05 04:19:32;;;;;;;27.73;25.67;;;17.90;74.70;;;;;;5010086;28;20461;-71
2022/07/05 04:21:59;;;;;;;29.00;27.27;;;17.70;75.00;;;;;;5011154;28;20463;-70
2022/07/05 04:24:26;;;;;;;32.53;30.63;;;17.70;75.60;;;;;;5007516;28;20988;-70
2022/07/05 04:26:53;;;;;;;30.07;28.20;;;17.80;75.40;;;;;;5011662;28;20467;-69
2022/07/05 04:29:20;;;;;;;30.73;29.03;;;17.80;75.90;;;;;;5008799;28;20603;-70
2022/07/05 04:31:48;;;;;;;28.03;25.93;;;17.90;75.50;;;;;;5009358;28;20469;-70
2022/07/05 04:34:15;;;;;;;27.43;25.60;;;17.90;75.00;;;;;;5009220;28;20576;-70
2022/07/05 04:36:42;;;;;;;27.73;26.03;;;17.90;75.40;;;;;;5012119;28;20548;-71
2022/07/05 04:39:10;;;;;;;27.43;25.93;;;18.00;74.80;;;;;;5009791;28;20580;-70
2022/07/05 04:41:36;;;;;;;28.10;26.50;;;18.00;74.90;;;;;;5007006;28;20457;-69
2022/07/05 04:44:04;;;;;;;28.53;27.00;;;17.90;75.20;;;;;;5006863;28;20535;-71
2022/07/05 04:46:31;;;;;;;27.53;25.93;;;17.80;75.30;;;;;;5010514;28;20468;-69
2022/07/05 04:48:59;;;;;;;27.83;26.03;;;17.70;75.90;;;;;;5009754;28;20588;-69
2022/07/05 04:51:26;;;;;;;26.90;25.20;;;17.70;75.70;;;;;;5008667;28;20469;-72
2022/07/05 04:53:53;;;;;;;26.73;25.23;;;17.80;75.70;;;;;;5009142;28;20461;-70
2022/07/05 04:56:20;;;;;;;27.27;25.37;;;17.80;75.40;;;;;;5008248;28;20461;-71
2022/07/05 04:58:47;;;;;;;27.50;25.80;;;17.90;75.20;;;;;;5009381;28;20483;-71
2022/07/05 05:01:14;;;;;;;28.30;26.60;;;18.00;75.00;;;;;;5006480;28;20475;-71
2022/07/05 05:03:41;;;;;;;29.20;27.40;;;18.10;74.80;;;;;;5010352;28;20461;-71
2022/07/05 05:06:09;;;;;;;27.73;26.00;;;18.20;74.60;;;;;;5009090;28;20537;-71
2022/07/05 05:08:36;;;;;;;28.57;26.87;;;18.30;74.20;;;;;;5009161;28;20531;-71
2022/07/05 05:11:05;;;;;;;29.07;27.23;;;18.30;74.00;;;;;;5008493;28;20469;-71
2022/07/05 05:13:32;;;;;;;31.53;30.07;;;18.30;74.00;;;;;;5010196;28;20453;-71
2022/07/05 05:15:59;;;;;;;30.07;27.90;;;18.40;73.90;;;;;;5008514;28;20489;-73
2022/07/05 05:18:27;;;;;;;27.77;26.10;;;18.50;73.60;;;;;;4997074;28;20576;-71
2022/07/05 05:20:55;;;;;;;31.33;29.53;;;18.50;73.40;;;;;;5005846;28;21003;-71
2022/07/05 05:23:23;;;;;;;27.90;26.20;;;18.50;73.60;;;;;;5009991;28;20468;-71
2022/07/05 05:25:50;;;;;;;28.27;26.70;;;18.80;73.30;;;;;;5008734;28;20480;-69
2022/07/05 05:28:17;;;;;;;28.80;27.00;;;18.80;73.20;;;;;;5009575;28;20577;-69
2022/07/05 05:30:44;;;;;;;28.07;26.47;;;18.80;73.80;;;;;;5006332;28;20532;-72
2022/07/05 05:33:11;;;;;;;35.10;32.80;;;19.00;73.70;;;;;;5009479;28;20546;-71
2022/07/05 05:35:38;;;;;;;34.23;31.80;;;19.10;72.90;;;;;;5006528;28;20553;-72
2022/07/05 05:38:05;;;;;;;30.13;28.43;;;19.30;72.30;;;;;;5007668;28;20994;-74
2022/07/05 05:40:33;;;;;;;34.10;32.00;;;19.40;71.70;;;;;;5005639;28;20903;-75
2022/07/05 05:43:01;;;;;;;29.10;27.40;;;19.50;70.70;;;;;;5005836;28;20552;-71
2022/07/05 05:45:39;;;;;;;29.00;27.20;;;19.60;70.10;;;;;;5006910;28;20465;-70
2022/07/05 05:48:06;;;;;;;29.20;27.50;;;19.70;70.40;;;;;;5009823;28;20488;-69
2022/07/05 05:50:35;;;;;;;32.20;30.50;;;19.80;70.10;;;;;;5008089;28;20469;-69
2022/07/05 05:53:03;;;;;;;27.73;26.23;;;19.90;69.20;;;;;;5008246;28;20527;-67
2022/07/05 05:55:31;;;;;;;28.20;26.40;;;20.10;67.70;;;;;;5010433;28;20546;-70
2022/07/05 05:58:11;;;;;;;27.67;26.03;;;20.30;66.30;;;;;;5004282;28;20491;-68
2022/07/05 06:00:39;;;;;;;28.33;26.67;;;20.40;65.60;;;;;;5008478;28;20459;-69
2022/07/05 06:03:06;;;;;;;30.27;28.17;;;20.50;65.00;;;;;;5008486;28;20464;-68
2022/07/05 06:05:33;;;;;;;29.10;27.10;;;20.70;64.50;;;;;;5007380;28;20502;-68
2022/07/05 06:08:00;;;;;;;30.50;28.80;;;20.80;63.80;;;;;;5010627;28;20561;-69
2022/07/05 06:10:29;;;;;;;27.73;26.03;;;20.80;62.10;;;;;;5005841;28;20751;-69
2022/07/05 06:12:59;;;;;;;28.83;27.03;;;20.90;62.90;;;;;;5004976;28;21018;-69
2022/07/05 06:15:26;;;;;;;27.07;25.53;;;21.00;62.70;;;;;;5007785;28;20471;-69
2022/07/05 06:17:53;;;;;;;28.57;26.97;;;21.10;62.70;;;;;;5009158;28;20572;-68
2022/07/05 06:20:22;;;;;;;32.13;30.23;;;21.20;62.00;;;;;;5005821;28;20455;-69
2022/07/05 06:22:50;;;;;;;31.00;29.20;;;21.40;61.20;;;;;;5008187;28;20565;-68
2022/07/05 06:25:46;;;;;;;28.33;26.73;;;21.40;60.60;;;;;;5005619;28;20496;-68
2022/07/05 06:28:15;;;;;;;31.93;29.90;;;21.50;57.60;;;;;;5004076;28;20547;-67
2022/07/05 06:30:42;;;;;;;27.13;25.53;;;21.40;57.70;;;;;;5004759;28;20461;-67
2022/07/05 06:33:09;;;;;;;28.07;26.47;;;21.50;57.80;;;;;;5005610;28;20532;-67
2022/07/05 06:35:37;;;;;;;28.90;27.40;;;21.60;59.00;;;;;;5005298;28;20483;-67
2022/07/05 06:38:05;;;;;;;27.97;26.30;;;21.70;57.10;;;;;;5007708;28;20481;-67
2022/07/05 06:40:34;;;;;;;28.20;26.43;;;21.70;57.00;;;;;;4999789;28;20464;-67
2022/07/05 06:43:03;;;;;;;27.00;25.50;;;21.90;56.50;;;;;;5003687;28;20575;-68
2022/07/05 06:45:32;;;;;;;27.23;25.73;;;22.00;55.80;;;;;;5003115;28;20551;-68
2022/07/05 06:48:01;;;;;;;26.97;25.47;;;21.90;56.30;;;;;;5005604;28;20575;-68
2022/07/05 06:50:29;;;;;;;28.43;26.63;;;21.90;56.10;;;;;;5004908;28;21334;-68
2022/07/05 06:52:57;;;;;;;28.70;27.03;;;21.90;56.00;;;;;;5006083;28;20585;-68
2022/07/05 06:55:25;;;;;;;30.73;27.90;;;22.00;56.30;;;;;;5006168;28;20565;-68
2022/07/05 06:57:59;;;;;;;28.73;26.80;;;22.10;55.80;;;;;;5005999;28;20482;-68
2022/07/05 07:00:26;;;;;;;29.90;27.70;;;22.20;55.40;;;;;;5006463;28;20451;-67
2022/07/05 07:02:55;;;;;;;31.83;29.83;;;22.20;55.80;;;;;;5004438;28;20561;-73
2022/07/05 07:05:22;;;;;;;32.97;31.07;;;22.40;55.40;;;;;;5005353;28;20458;-68
2022/07/05 07:10:34;;;;;;;27.03;25.53;;;22.50;54.00;;;;;;5006137;28;20568;-68
2022/07/05 07:13:01;;;;;;;28.30;26.60;;;22.60;53.70;;;;;;5005615;28;20543;-68
2022/07/05 07:15:29;;;;;;;29.20;27.30;;;22.60;53.50;;;;;;5004463;28;20804;-68
2022/07/05 07:17:58;;;;;;;26.87;25.37;;;22.70;53.30;;;;;;5005717;28;20570;-68
2022/07/05 07:20:25;;;;;;;29.40;27.80;;;22.70;52.80;;;;;;5004385;28;20560;-68
2022/07/05 07:22:53;;;;;;;26.47;24.97;;;22.80;52.60;;;;;;5007115;28;20552;-67
2022/07/05 07:25:23;;;;;;;26.83;25.33;;;22.70;53.50;;;;;;5006328;28;20463;-68
2022/07/05 07:27:52;;;;;;;27.17;25.73;;;22.60;54.00;;;;;;5004621;28;20487;-68
2022/07/05 07:30:21;;;;;;;31.30;29.40;;;22.70;53.80;;;;;;5003652;28;20538;-68
2022/07/05 07:32:48;;;;;;;28.40;26.60;;;22.90;54.00;;;;;;5007086;28;20876;-67
2022/07/05 07:35:16;;;;;;;31.10;29.33;;;22.90;53.20;;;;;;5005096;28;20465;-68
2022/07/05 07:37:43;;;;;;;27.83;26.00;;;23.00;53.40;;;;;;5005196;28;20917;-68
2022/07/05 07:40:11;;;;;;;28.37;26.67;;;23.00;52.90;;;;;;5003876;28;21048;-68
2022/07/05 07:42:38;;;;;;;27.60;25.67;;;23.10;53.30;;;;;;5003782;28;20496;-68
2022/07/05 07:45:06;;;;;;;26.53;25.03;;;23.00;52.60;;;;;;5007236;28;21104;-68
2022/07/05 07:47:34;;;;;;;27.00;25.40;;;23.00;53.50;;;;;;5001240;28;20481;-70
2022/07/05 07:50:02;;;;;;;27.20;25.40;;;23.20;53.30;;;;;;5006187;28;20507;-70
2022/07/05 07:52:33;;;;;;;31.73;29.60;;;23.30;53.50;;;;;;5001302;28;20457;-71
2022/07/05 07:55:00;;;;;;;28.17;26.57;;;23.50;52.80;;;;;;5004521;28;20453;-70
2022/07/05 07:57:27;;;;;;;27.40;25.90;;;23.50;52.40;;;;;;5003011;28;20477;-70
2022/07/05 07:59:54;;;;;;;27.73;26.13;;;23.50;52.70;;;;;;5008069;28;20489;-70
2022/07/05 08:02:22;;;;;;;31.33;29.83;;;23.50;52.70;;;;;;5008364;28;20573;-68
2022/07/05 08:04:49;;;;;;;27.57;25.87;;;23.60;52.40;;;;;;5004599;28;20464;-70
2022/07/05 08:07:17;;;;;;;27.63;25.83;;;23.60;52.60;;;;;;5005541;28;20473;-68
2022/07/05 08:09:45;;;;;;;30.20;28.57;;;23.60;52.90;;;;;;5003797;28;20477;-68
2022/07/05 08:12:13;;;;;;;26.73;25.13;;;23.80;52.30;;;;;;5006106;28;20475;-68
2022/07/05 08:14:40;;;;;;;28.20;26.60;;;23.90;51.70;;;;;;5005147;28;20463;-68
2022/07/05 08:17:09;;;;;;;27.23;25.53;;;24.00;51.80;;;;;;5004109;28;20784;-67
2022/07/05 08:22:21;;;;;;;28.17;26.57;;;23.90;52.10;;;;;;5009785;28;20611;-68
2022/07/05 08:24:50;;;;;;;30.07;28.27;;;24.10;51.80;;;;;;5006899;28;20861;-68
2022/07/05 08:27:17;;;;;;;28.27;26.60;;;24.10;51.80;;;;;;5006872;28;21019;-68
2022/07/05 08:29:45;;;;;;;29.83;28.03;;;24.20;51.60;;;;;;5006356;28;20564;-68
2022/07/05 08:32:12;;;;;;;34.63;32.93;;;24.20;51.80;;;;;;5006660;28;20461;-68
2022/07/05 08:34:39;;;;;;;28.70;27.03;;;24.20;50.90;;;;;;4998830;28;20480;-68
2022/07/05 08:37:06;;;;;;;30.37;28.60;;;24.10;51.10;;;;;;5004388;28;20476;-68
2022/07/05 08:39:34;;;;;;;31.83;30.13;;;24.30;51.40;;;;;;5003572;28;21024;-68
2022/07/05 08:42:02;;;;;;;32.90;30.90;;;24.40;51.50;;;;;;5000834;28;20484;-68
2022/07/05 08:44:32;;;;;;;28.80;27.10;;;24.40;51.60;;;;;;5005641;28;20612;-68
2022/07/05 08:47:02;;;;;;;29.93;28.23;;;24.40;51.40;;;;;;5004436;28;20465;-69
2022/07/05 08:49:33;;;;;;;30.93;28.83;;;24.50;51.60;;;;;;5005966;28;20480;-68
2022/07/05 08:52:03;;;;;;;30.43;28.63;;;24.60;51.20;;;;;;5005228;28;20466;-68
2022/07/05 08:54:31;;;;;;;28.40;26.80;;;24.50;50.50;;;;;;5002031;28;20465;-68
2022/07/05 08:56:58;;;;;;;28.93;27.13;;;24.60;51.10;;;;;;5008133;28;20553;-68
2022/07/05 08:59:26;;;;;;;31.67;29.83;;;24.70;51.50;;;;;;5007928;28;20480;-68
2022/07/05 09:01:56;;;;;;;28.87;26.90;;;24.80;51.20;;;;;;5004967;28;20556;-68
2022/07/05 09:04:24;;;;;;;32.00;30.13;;;24.90;51.00;;;;;;5006701;28;20467;-68
2022/07/05 09:06:54;;;;;;;28.20;26.70;;;25.20;50.20;;;;;;5007547;28;21791;-68
2022/07/05 09:09:23;;;;;;;33.37;31.67;;;25.20;49.00;;;;;;5007954;28;20543;-68
2022/07/05 09:11:50;;;;;;;31.57;29.60;;;25.20;49.30;;;;;;5002885;28;20759;-68
2022/07/05 09:14:23;;;;;;;28.77;27.07;;;25.00;48.20;;;;;;5007354;28;20453;-68
2022/07/05 09:16:51;;;;;;;29.70;28.00;;;24.90;48.40;;;;;;5006917;28;20461;-68
2022/07/05 09:19:18;;;;;;;31.50;29.70;;;24.80;49.50;;;;;;5015870;28;20489;-68
2022/07/05 09:21:46;;;;;;;30.17;28.37;;;24.80;50.30;;;;;;5000077;28;21042;-68
2022/07/05 09:24:14;;;;;;;32.27;30.50;;;25.00;49.40;;;;;;5004506;28;20537;-68
2022/07/05 09:26:44;;;;;;;29.93;28.13;;;25.00;48.90;;;;;;5005843;28;20465;-68
2022/07/05 09:29:13;;;;;;;30.73;28.83;;;25.10;48.70;;;;;;5000211;28;20820;-70
2022/07/05 09:31:42;;;;;;;32.57;30.77;;;25.00;49.30;;;;;;5005638;28;20461;-74
2022/07/05 09:34:11;;;;;;;28.30;26.70;;;25.00;47.70;;;;;;5002402;28;20822;-71
2022/07/05 09:36:51;;;;;;;31.87;30.07;;;24.80;48.30;;;;;;5002783;28;20453;-71
2022/07/05 09:39:19;;;;;;;28.90;27.17;;;24.70;48.80;;;;;;5004376;28;20591;-71
2022/07/05 09:41:46;;;;;;;29.80;28.00;;;24.80;48.90;;;;;;5006310;28;21084;-71
2022/07/05 09:44:26;;;;;;;31.47;29.67;;;25.00;49.30;;;;;;5004326;28;20464;-71
2022/07/05 09:47:09;;;;;;;33.03;31.20;;;25.30;48.40;;;;;;5005280;28;20859;-71
2022/07/05 09:49:39;;;;;;;32.80;31.10;;;25.40;47.60;;;;;;5004892;28;20454;-71
2022/07/05 09:52:06;;;;;;;29.50;27.70;;;25.20;48.20;;;;;;5003812;28;20556;-68
2022/07/05 09:54:33;;;;;;;30.27;28.47;;;25.00;47.70;;;;;;5004714;28;21081;-68
2022/07/05 09:57:00;;;;;;;29.60;27.80;;;25.00;46.90;;;;;;5001300;28;20540;-69
2022/07/05 09:59:27;;;;;;;29.00;27.40;;;25.10;46.20;;;;;;5005346;28;20918;-68
2022/07/05 10:01:54;;;;;;;29.17;27.57;;;25.20;46.30;;;;;;5004921;28;20464;-68
2022/07/05 10:04:23;;;;;;;30.90;29.20;;;25.50;45.70;;;;;;5005548;28;20467;-68
2022/07/05 10:06:51;;;;;;;29.27;27.60;;;25.20;43.80;;;;;;4997273;28;20471;-68
2022/07/05 10:09:19;;;;;;;31.50;29.60;;;25.00;43.50;;;;;;5005756;28;20880;-68
2022/07/05 10:11:47;;;;;;;28.90;27.10;;;25.20;43.90;;;;;;5006263;28;20495;-68
2022/07/05 10:14:19;;;;;;;30.97;29.20;;;25.30;43.50;;;;;;5007032;28;20453;-68
2022/07/05 10:16:57;;;;;;;30.17;28.47;;;25.30;44.60;;;;;;5008836;28;20565;-70
2022/07/05 10:19:29;;;;;;;30.13;28.50;;;25.30;43.70;;;;;;5004787;28;20483;-70
2022/07/05 10:21:58;;;;;;;30.37;28.63;;;25.30;45.10;;;;;;5004471;28;20490;-71
2022/07/05 10:24:26;;;;;;;28.80;27.20;;;25.50;44.90;;;;;;5005022;28;20572;-70
2022/07/05 10:26:55;;;;;;;29.10;27.40;;;25.70;44.50;;;;;;5005671;28;20457;-70
2022/07/05 10:29:23;;;;;;;31.70;29.70;;;25.90;44.60;;;;;;5005171;28;20877;-71
2022/07/05 10:31:50;;;;;;;30.80;29.10;;;25.60;45.10;;;;;;5005426;28;20503;-70
2022/07/05 10:34:19;;;;;;;32.60;30.80;;;25.30;45.90;;;;;;5004927;28;20497;-70
2022/07/05 10:36:46;;;;;;;31.93;30.13;;;25.40;44.50;;;;;;5006258;28;20472;-70
2022/07/05 10:39:15;;;;;;;30.27;28.57;;;25.50;44.70;;;;;;5005735;28;21043;-70
2022/07/05 10:41:44;;;;;;;28.80;27.00;;;25.70;45.10;;;;;;5007255;28;20533;-71
2022/07/05 10:44:11;;;;;;;29.00;27.17;;;25.90;44.30;;;;;;5004321;28;20547;-70
2022/07/05 10:46:41;;;;;;;29.80;28.00;;;26.00;43.90;;;;;;5009483;28;20492;-71
2022/07/05 10:49:14;;;;;;;30.50;28.73;;;25.80;43.70;;;;;;5004535;28;20493;-71
2022/07/05 10:51:41;;;;;;;33.10;31.40;;;25.60;44.20;;;;;;5005787;28;20546;-70
2022/07/05 10:54:08;;;;;;;33.63;31.80;;;25.70;43.90;;;;;;5002833;28;20465;-70
2022/07/05 10:56:38;;;;;;;30.97;29.17;;;25.90;44.20;;;;;;5005688;28;20765;-70
2022/07/05 10:59:09;;;;;;;31.80;30.00;;;26.30;43.40;;;;;;5003465;28;20486;-70
2022/07/05 11:01:37;;;;;;;31.87;30.07;;;26.10;43.40;;;;;;5004820;28;20484;-71
2022/07/05 11:04:35;;;;;;;35.90;33.70;;;26.10;43.10;;;;;;5003014;28;20457;-70
2022/07/05 11:07:04;;;;;;;31.30;29.60;;;26.10;43.10;;;;;;5001242;28;20816;-70
2022/07/05 11:09:31;;;;;;;34.07;32.03;;;26.20;43.20;;;;;;5004541;28;20507;-70
2022/07/05 11:12:10;;;;;;;30.20;28.40;;;26.30;43.10;;;;;;5004267;28;20957;-74
2022/07/05 11:14:38;;;;;;;33.70;31.80;;;26.50;42.50;;;;;;5005462;28;20471;-71
2022/07/05 11:17:25;;;;;;;29.63;27.93;;;26.30;42.00;;;;;;5005676;28;20539;-73
2022/07/05 11:20:30;;;;;;;33.47;31.47;;;26.30;42.90;;;;;;4993792;28;20475;-73
2022/07/05 11:23:08;;;;;;;30.80;29.10;;;26.50;42.90;;;;;;5005568;28;21689;-72
2022/07/05 11:25:44;;;;;;;29.43;27.73;;;26.60;42.60;;;;;;5005576;28;20543;-70
2022/07/05 11:28:26;;;;;;;30.50;28.50;;;26.60;42.90;;;;;;5000799;28;20475;-70
2022/07/05 11:30:59;;;;;;;32.97;30.97;;;26.50;43.10;;;;;;5000025;28;20540;-71
2022/07/05 11:33:31;;;;;;;33.17;31.40;;;26.50;42.80;;;;;;5001014;28;20468;-71
2022/07/05 11:35:59;;;;;;;35.63;33.63;;;26.30;42.90;;;;;;5008336;28;20455;-71
2022/07/05 11:38:26;;;;;;;30.63;28.93;;;26.10;43.30;;;;;;5008885;28;20786;-73
2022/07/05 11:40:54;;;;;;;32.33;30.40;;;26.10;43.70;;;;;;5009631;28;20953;-72
2022/07/05 11:43:28;;;;;;;32.93;31.03;;;26.30;43.30;;;;;;5008597;28;20459;-72
2022/07/05 11:46:00;;;;;;;31.37;29.47;;;26.40;43.30;;;;;;5008412;28;20458;-72
2022/07/05 11:48:28;;;;;;;34.30;32.40;;;26.30;43.50;;;;;;5006445;28;20490;-71
2022/07/05 11:50:55;;;;;;;31.33;29.50;;;26.30;43.60;;;;;;5003660;28;20463;-72
2022/07/05 11:53:30;;;;;;;32.47;30.67;;;26.50;44.10;;;;;;5008856;28;20459;-71
2022/07/05 11:55:59;;;;;;;32.03;30.23;;;26.80;43.90;;;;;;5008539;28;20923;-71
2022/07/05 11:58:33;;;;;;;30.50;28.70;;;27.00;43.10;;;;;;5009136;28;20484;-73
2022/07/05 12:01:01;;;;;;;31.37;29.67;;;27.00;42.60;;;;;;5003796;28;20491;-75
2022/07/05 12:03:29;;;;;;;38.77;36.87;;;26.90;42.90;;;;;;5000575;28;20852;-73
2022/07/05 12:05:56;;;;;;;37.23;35.20;;;26.70;42.90;;;;;;5006736;28;21077;-75
2022/07/05 12:08:23;;;;;;;30.70;28.90;;;26.80;42.40;;;;;;5009334;28;20476;-75
2022/07/05 12:13:47;;;;;;;30.23;28.13;;;27.00;42.60;;;;;;5009574;28;20964;-74
2022/07/05 12:16:15;;;;;;;31.43;29.50;;;27.00;42.80;;;;;;5008490;28;20563;-73
2022/07/05 12:18:52;;;;;;;32.27;30.27;;;27.10;42.50;;;;;;5008466;28;20487;-74
2022/07/05 12:21:20;;;;;;;30.40;28.60;;;27.10;42.90;;;;;;5007644;28;20516;-72
2022/07/05 12:23:48;;;;;;;32.10;30.00;;;27.20;43.10;;;;;;5006948;28;20472;-70
2022/07/05 12:26:16;;;;;;;33.10;31.00;;;27.20;42.90;;;;;;5007926;28;20495;-70
2022/07/05 12:28:44;;;;;;;36.90;35.10;;;26.90;43.20;;;;;;5005843;28;20492;-70
2022/07/05 12:31:23;;;;;;;33.30;31.20;;;26.70;43.60;;;;;;5005780;28;20543;-70
2022/07/05 12:33:50;;;;;;;29.10;27.40;;;26.70;43.80;;;;;;5008252;28;20529;-70
2022/07/05 12:36:19;;;;;;;34.80;32.90;;;26.80;43.80;;;;;;5007781;28;20554;-70
2022/07/05 12:38:46;;;;;;;28.73;26.90;;;27.00;43.50;;;;;;5008629;28;21082;-70
2022/07/05 12:41:22;;;;;;;31.60;29.47;;;27.20;43.10;;;;;;5008910;28;20599;-72
2022/07/05 12:43:51;;;;;;;28.60;27.00;;;27.30;42.60;;;;;;5007536;28;20460;-72